sensor_id;sensor_type;location;lat;lon;timestamp;P1;durP1;ratioP1;P2;durP2;ratioP2
27558;SDS011;15002;52.028;5.670;2022-11-15T00:01:08;39.15;;;19.35;;
27558;SDS011;15002;52.028;5.670;2022-11-15T00:03:34;42.40;;;19.58;;
27558;SDS011;15002;52.028;5.670;2022-11-15T00:06:03;43.55;;;19.40;;
27558;SDS011;15002;52.028;5.670;2022-11-15T00:08:30;42.42;;;19.70;;
27558;SDS011;15002;52.028;5.670;2022-11-15T00:10:57;48.75;;;20.23;;
27558;SDS011;15002;52.028;5.670;2022-11-15T00:13:24;42.03;;;20.05;;
27558;SDS011;15002;52.028;5.670;2022-11-15T00:15:50;44.10;;;20.25;;
27558;SDS011;15002;52.028;5.670;2022-11-15T00:18:17;45.92;;;20.63;;
27558;SDS011;15002;52.028;5.670;2022-11-15T00:20:43;41.13;;;19.30;;
27558;SDS011;15002;52.028;5.670;2022-11-15T00:23:09;45.83;;;19.40;;
27558;SDS011;15002;52.028;5.670;2022-11-15T00:25:35;45.80;;;20.23;;
27558;SDS011;15002;52.028;5.670;2022-11-15T00:28:01;47.28;;;20.58;;
27558;SDS011;15002;52.028;5.670;2022-11-15T00:30:27;47.03;;;20.65;;
27558;SDS011;15002;52.028;5.670;2022-11-15T00:32:53;41.40;;;19.63;;
27558;SDS011;15002;52.028;5.670;2022-11-15T00:35:19;46.17;;;19.73;;
27558;SDS011;15002;52.028;5.670;2022-11-15T00:37:45;44.22;;;19.73;;
27558;SDS011;15002;52.028;5.670;2022-11-15T00:40:12;43.20;;;21.60;;
27558;SDS011;15002;52.028;5.670;2022-11-15T00:42:39;47.47;;;20.27;;
27558;SDS011;15002;52.028;5.670;2022-11-15T00:45:05;48.25;;;22.00;;
27558;SDS011;15002;52.028;5.670;2022-11-15T00:47:31;46.20;;;20.23;;
27558;SDS011;15002;52.028;5.670;2022-11-15T00:49:56;44.10;;;20.60;;
27558;SDS011;15002;52.028;5.670;2022-11-15T00:52:22;49.63;;;20.63;;
27558;SDS011;15002;52.028;5.670;2022-11-15T00:54:48;48.30;;;20.98;;
27558;SDS011;15002;52.028;5.670;2022-11-15T00:57:14;47.58;;;20.40;;
27558;SDS011;15002;52.028;5.670;2022-11-15T00:59:39;43.25;;;21.42;;
27558;SDS011;15002;52.028;5.670;2022-11-15T01:02:05;45.28;;;20.08;;
27558;SDS011;15002;52.028;5.670;2022-11-15T01:04:30;44.28;;;20.20;;
27558;SDS011;15002;52.028;5.670;2022-11-15T01:06:56;42.63;;;20.35;;
27558;SDS011;15002;52.028;5.670;2022-11-15T01:09:21;38.35;;;19.55;;
27558;SDS011;15002;52.028;5.670;2022-11-15T01:11:47;41.13;;;19.02;;
27558;SDS011;15002;52.028;5.670;2022-11-15T01:14:13;42.70;;;19.75;;
27558;SDS011;15002;52.028;5.670;2022-11-15T01:16:39;39.95;;;20.17;;
27558;SDS011;15002;52.028;5.670;2022-11-15T01:19:04;41.08;;;20.48;;
27558;SDS011;15002;52.028;5.670;2022-11-15T01:21:30;40.67;;;20.48;;
27558;SDS011;15002;52.028;5.670;2022-11-15T01:23:56;37.03;;;19.80;;
27558;SDS011;15002;52.028;5.670;2022-11-15T01:26:23;45.08;;;21.15;;
27558;SDS011;15002;52.028;5.670;2022-11-15T01:28:49;39.40;;;20.13;;
27558;SDS011;15002;52.028;5.670;2022-11-15T01:31:16;45.85;;;21.23;;
27558;SDS011;15002;52.028;5.670;2022-11-15T01:33:44;43.80;;;20.67;;
27558;SDS011;15002;52.028;5.670;2022-11-15T01:36:15;38.55;;;20.75;;
27558;SDS011;15002;52.028;5.670;2022-11-15T01:38:42;41.53;;;20.73;;
27558;SDS011;15002;52.028;5.670;2022-11-15T01:41:18;40.08;;;20.65;;
27558;SDS011;15002;52.028;5.670;2022-11-15T01:43:46;44.25;;;20.85;;
27558;SDS011;15002;52.028;5.670;2022-11-15T01:48:48;35.30;;;20.20;;
27558;SDS011;15002;52.028;5.670;2022-11-15T01:51:17;40.45;;;20.13;;
27558;SDS011;15002;52.028;5.670;2022-11-15T01:53:45;39.15;;;20.42;;
27558;SDS011;15002;52.028;5.670;2022-11-15T01:56:15;39.75;;;20.35;;
27558;SDS011;15002;52.028;5.670;2022-11-15T01:58:43;40.72;;;20.38;;
27558;SDS011;15002;52.028;5.670;2022-11-15T02:01:11;35.55;;;21.05;;
27558;SDS011;15002;52.028;5.670;2022-11-15T02:03:41;37.10;;;19.92;;
27558;SDS011;15002;52.028;5.670;2022-11-15T02:06:13;34.08;;;19.52;;
27558;SDS011;15002;52.028;5.670;2022-11-15T02:08:39;43.05;;;19.67;;
27558;SDS011;15002;52.028;5.670;2022-11-15T02:11:09;39.15;;;20.67;;
27558;SDS011;15002;52.028;5.670;2022-11-15T02:13:35;39.55;;;19.70;;
27558;SDS011;15002;52.028;5.670;2022-11-15T02:16:09;45.25;;;20.73;;
27558;SDS011;15002;52.028;5.670;2022-11-15T02:31:01;36.55;;;18.73;;
27558;SDS011;15002;52.028;5.670;2022-11-15T02:36:36;36.72;;;18.23;;
27558;SDS011;15002;52.028;5.670;2022-11-15T02:42:30;34.70;;;19.10;;
27558;SDS011;15002;52.028;5.670;2022-11-15T02:45:00;34.15;;;19.63;;
27558;SDS011;15002;52.028;5.670;2022-11-15T02:47:30;37.47;;;19.98;;
27558;SDS011;15002;52.028;5.670;2022-11-15T02:50:06;33.50;;;20.17;;
27558;SDS011;15002;52.028;5.670;2022-11-15T02:52:34;37.88;;;20.35;;
27558;SDS011;15002;52.028;5.670;2022-11-15T02:55:00;38.03;;;19.73;;
27558;SDS011;15002;52.028;5.670;2022-11-15T03:00:08;32.15;;;18.45;;
27558;SDS011;15002;52.028;5.670;2022-11-15T03:05:11;32.58;;;18.83;;
27558;SDS011;15002;52.028;5.670;2022-11-15T03:07:43;34.67;;;18.85;;
27558;SDS011;15002;52.028;5.670;2022-11-15T03:10:17;33.95;;;19.90;;
27558;SDS011;15002;52.028;5.670;2022-11-15T03:12:51;39.83;;;19.70;;
27558;SDS011;15002;52.028;5.670;2022-11-15T03:18:04;32.75;;;19.52;;
27558;SDS011;15002;52.028;5.670;2022-11-15T03:20:38;32.78;;;19.58;;
27558;SDS011;15002;52.028;5.670;2022-11-15T03:23:06;29.75;;;18.17;;
27558;SDS011;15002;52.028;5.670;2022-11-15T03:25:34;34.72;;;19.85;;
27558;SDS011;15002;52.028;5.670;2022-11-15T03:30:34;34.20;;;19.45;;
27558;SDS011;15002;52.028;5.670;2022-11-15T03:33:02;33.05;;;18.85;;
27558;SDS011;15002;52.028;5.670;2022-11-15T03:35:30;33.15;;;19.58;;
27558;SDS011;15002;52.028;5.670;2022-11-15T03:38:04;33.95;;;20.13;;
27558;SDS011;15002;52.028;5.670;2022-11-15T03:40:40;32.33;;;19.50;;
27558;SDS011;15002;52.028;5.670;2022-11-15T03:46:51;30.13;;;18.25;;
27558;SDS011;15002;52.028;5.670;2022-11-15T03:49:27;33.90;;;19.80;;
27558;SDS011;15002;52.028;5.670;2022-11-15T03:51:57;34.00;;;19.08;;
27558;SDS011;15002;52.028;5.670;2022-11-15T03:54:24;31.75;;;18.58;;
27558;SDS011;15002;52.028;5.670;2022-11-15T03:56:49;31.10;;;19.50;;
27558;SDS011;15002;52.028;5.670;2022-11-15T03:59:15;37.03;;;20.15;;
27558;SDS011;15002;52.028;5.670;2022-11-15T04:01:41;33.75;;;20.38;;
27558;SDS011;15002;52.028;5.670;2022-11-15T04:04:06;38.60;;;20.98;;
27558;SDS011;15002;52.028;5.670;2022-11-15T04:06:32;31.88;;;19.85;;
27558;SDS011;15002;52.028;5.670;2022-11-15T04:08:57;34.17;;;20.63;;
27558;SDS011;15002;52.028;5.670;2022-11-15T04:11:23;36.78;;;20.92;;
27558;SDS011;15002;52.028;5.670;2022-11-15T04:13:49;39.88;;;21.30;;
27558;SDS011;15002;52.028;5.670;2022-11-15T04:16:14;38.83;;;21.20;;
27558;SDS011;15002;52.028;5.670;2022-11-15T04:18:40;35.47;;;19.75;;
27558;SDS011;15002;52.028;5.670;2022-11-15T04:21:05;35.03;;;20.98;;
27558;SDS011;15002;52.028;5.670;2022-11-15T04:23:51;36.47;;;19.60;;
27558;SDS011;15002;52.028;5.670;2022-11-15T04:26:17;35.08;;;20.80;;
27558;SDS011;15002;52.028;5.670;2022-11-15T04:28:46;40.47;;;20.52;;
27558;SDS011;15002;52.028;5.670;2022-11-15T04:31:30;39.28;;;20.13;;
27558;SDS011;15002;52.028;5.670;2022-11-15T04:33:55;35.13;;;20.33;;
27558;SDS011;15002;52.028;5.670;2022-11-15T04:36:21;38.53;;;21.83;;
27558;SDS011;15002;52.028;5.670;2022-11-15T04:39:06;34.63;;;19.20;;
27558;SDS011;15002;52.028;5.670;2022-11-15T04:41:31;34.72;;;19.48;;
27558;SDS011;15002;52.028;5.670;2022-11-15T04:43:57;33.50;;;19.75;;
27558;SDS011;15002;52.028;5.670;2022-11-15T04:46:23;32.33;;;19.65;;
27558;SDS011;15002;52.028;5.670;2022-11-15T04:48:49;36.90;;;20.80;;
27558;SDS011;15002;52.028;5.670;2022-11-15T04:51:15;36.67;;;19.75;;
27558;SDS011;15002;52.028;5.670;2022-11-15T04:53:41;36.28;;;19.85;;
27558;SDS011;15002;52.028;5.670;2022-11-15T04:56:07;36.15;;;20.45;;
27558;SDS011;15002;52.028;5.670;2022-11-15T04:58:33;34.25;;;19.98;;
27558;SDS011;15002;52.028;5.670;2022-11-15T05:01:05;34.17;;;20.17;;
27558;SDS011;15002;52.028;5.670;2022-11-15T05:03:36;32.40;;;19.40;;
27558;SDS011;15002;52.028;5.670;2022-11-15T05:06:21;32.33;;;20.00;;
27558;SDS011;15002;52.028;5.670;2022-11-15T05:08:47;30.85;;;19.70;;
27558;SDS011;15002;52.028;5.670;2022-11-15T05:11:12;35.45;;;20.80;;
27558;SDS011;15002;52.028;5.670;2022-11-15T05:13:38;34.15;;;19.45;;
27558;SDS011;15002;52.028;5.670;2022-11-15T05:16:03;32.40;;;19.13;;
27558;SDS011;15002;52.028;5.670;2022-11-15T05:18:29;33.83;;;19.95;;
27558;SDS011;15002;52.028;5.670;2022-11-15T05:20:55;34.35;;;20.13;;
27558;SDS011;15002;52.028;5.670;2022-11-15T05:23:20;34.60;;;19.42;;
27558;SDS011;15002;52.028;5.670;2022-11-15T05:25:46;37.08;;;20.90;;
27558;SDS011;15002;52.028;5.670;2022-11-15T05:28:12;32.08;;;20.20;;
27558;SDS011;15002;52.028;5.670;2022-11-15T05:30:38;33.33;;;20.20;;
27558;SDS011;15002;52.028;5.670;2022-11-15T05:33:03;39.78;;;21.08;;
27558;SDS011;15002;52.028;5.670;2022-11-15T05:35:30;32.58;;;18.98;;
27558;SDS011;15002;52.028;5.670;2022-11-15T05:38:03;35.75;;;20.13;;
27558;SDS011;15002;52.028;5.670;2022-11-15T05:40:29;34.45;;;20.45;;
27558;SDS011;15002;52.028;5.670;2022-11-15T05:42:56;30.90;;;20.00;;
27558;SDS011;15002;52.028;5.670;2022-11-15T05:45:22;34.90;;;20.27;;
27558;SDS011;15002;52.028;5.670;2022-11-15T05:47:48;40.65;;;20.75;;
27558;SDS011;15002;52.028;5.670;2022-11-15T05:50:14;34.40;;;20.05;;
27558;SDS011;15002;52.028;5.670;2022-11-15T05:52:41;36.00;;;20.55;;
27558;SDS011;15002;52.028;5.670;2022-11-15T05:55:10;44.05;;;21.10;;
27558;SDS011;15002;52.028;5.670;2022-11-15T05:57:37;38.30;;;21.25;;
27558;SDS011;15002;52.028;5.670;2022-11-15T06:00:06;36.60;;;21.52;;
27558;SDS011;15002;52.028;5.670;2022-11-15T06:02:33;35.67;;;20.80;;
27558;SDS011;15002;52.028;5.670;2022-11-15T06:04:58;36.55;;;21.70;;
27558;SDS011;15002;52.028;5.670;2022-11-15T06:07:24;41.65;;;23.27;;
27558;SDS011;15002;52.028;5.670;2022-11-15T06:09:49;38.97;;;21.60;;
27558;SDS011;15002;52.028;5.670;2022-11-15T06:12:15;36.38;;;21.42;;
27558;SDS011;15002;52.028;5.670;2022-11-15T06:14:41;45.35;;;22.63;;
27558;SDS011;15002;52.028;5.670;2022-11-15T06:17:06;39.30;;;22.55;;
27558;SDS011;15002;52.028;5.670;2022-11-15T06:19:32;37.35;;;21.35;;
27558;SDS011;15002;52.028;5.670;2022-11-15T06:21:58;36.55;;;21.55;;
27558;SDS011;15002;52.028;5.670;2022-11-15T06:24:25;34.92;;;21.30;;
27558;SDS011;15002;52.028;5.670;2022-11-15T06:26:50;37.25;;;21.38;;
27558;SDS011;15002;52.028;5.670;2022-11-15T06:29:16;35.20;;;20.50;;
27558;SDS011;15002;52.028;5.670;2022-11-15T06:31:42;39.55;;;20.88;;
27558;SDS011;15002;52.028;5.670;2022-11-15T06:34:07;37.00;;;20.73;;
27558;SDS011;15002;52.028;5.670;2022-11-15T06:36:34;39.70;;;20.73;;
27558;SDS011;15002;52.028;5.670;2022-11-15T06:39:00;36.33;;;20.80;;
27558;SDS011;15002;52.028;5.670;2022-11-15T06:41:26;34.40;;;19.58;;
27558;SDS011;15002;52.028;5.670;2022-11-15T06:43:52;32.20;;;19.20;;
27558;SDS011;15002;52.028;5.670;2022-11-15T06:46:18;36.67;;;20.77;;
27558;SDS011;15002;52.028;5.670;2022-11-15T06:48:44;31.13;;;19.45;;
27558;SDS011;15002;52.028;5.670;2022-11-15T06:51:09;30.60;;;19.05;;
27558;SDS011;15002;52.028;5.670;2022-11-15T06:53:35;35.80;;;20.80;;
27558;SDS011;15002;52.028;5.670;2022-11-15T06:56:01;35.47;;;20.13;;
27558;SDS011;15002;52.028;5.670;2022-11-15T06:58:29;33.72;;;19.27;;
27558;SDS011;15002;52.028;5.670;2022-11-15T07:00:59;34.40;;;19.85;;
27558;SDS011;15002;52.028;5.670;2022-11-15T07:03:36;35.33;;;20.30;;
27558;SDS011;15002;52.028;5.670;2022-11-15T07:06:03;32.17;;;19.15;;
27558;SDS011;15002;52.028;5.670;2022-11-15T07:08:29;35.15;;;20.10;;
27558;SDS011;15002;52.028;5.670;2022-11-15T07:10:57;38.90;;;19.83;;
27558;SDS011;15002;52.028;5.670;2022-11-15T07:13:25;37.60;;;20.42;;
27558;SDS011;15002;52.028;5.670;2022-11-15T07:15:51;35.15;;;19.85;;
27558;SDS011;15002;52.028;5.670;2022-11-15T07:18:17;34.60;;;19.63;;
27558;SDS011;15002;52.028;5.670;2022-11-15T07:20:43;35.60;;;20.60;;
27558;SDS011;15002;52.028;5.670;2022-11-15T07:23:09;29.00;;;19.58;;
27558;SDS011;15002;52.028;5.670;2022-11-15T07:25:34;32.30;;;20.38;;
27558;SDS011;15002;52.028;5.670;2022-11-15T07:28:00;32.53;;;19.75;;
27558;SDS011;15002;52.028;5.670;2022-11-15T07:30:26;31.33;;;19.33;;
27558;SDS011;15002;52.028;5.670;2022-11-15T07:32:53;33.65;;;19.45;;
27558;SDS011;15002;52.028;5.670;2022-11-15T07:35:20;41.33;;;20.08;;
27558;SDS011;15002;52.028;5.670;2022-11-15T07:37:53;35.17;;;20.02;;
27558;SDS011;15002;52.028;5.670;2022-11-15T07:40:22;34.28;;;20.55;;
27558;SDS011;15002;52.028;5.670;2022-11-15T07:42:48;36.80;;;20.70;;
27558;SDS011;15002;52.028;5.670;2022-11-15T07:45:21;36.25;;;20.20;;
27558;SDS011;15002;52.028;5.670;2022-11-15T07:47:48;29.60;;;19.50;;
27558;SDS011;15002;52.028;5.670;2022-11-15T07:50:15;34.20;;;19.83;;
27558;SDS011;15002;52.028;5.670;2022-11-15T07:52:41;32.45;;;18.77;;
27558;SDS011;15002;52.028;5.670;2022-11-15T07:55:07;34.88;;;19.17;;
27558;SDS011;15002;52.028;5.670;2022-11-15T07:57:33;31.30;;;20.27;;
27558;SDS011;15002;52.028;5.670;2022-11-15T07:59:59;29.83;;;18.60;;
27558;SDS011;15002;52.028;5.670;2022-11-15T08:02:24;32.58;;;19.23;;
27558;SDS011;15002;52.028;5.670;2022-11-15T08:04:50;32.17;;;19.65;;
27558;SDS011;15002;52.028;5.670;2022-11-15T08:07:16;29.67;;;19.67;;
27558;SDS011;15002;52.028;5.670;2022-11-15T08:09:41;34.38;;;19.42;;
27558;SDS011;15002;52.028;5.670;2022-11-15T08:12:07;30.83;;;18.95;;
27558;SDS011;15002;52.028;5.670;2022-11-15T08:14:34;32.15;;;19.10;;
27558;SDS011;15002;52.028;5.670;2022-11-15T08:17:00;34.00;;;19.05;;
27558;SDS011;15002;52.028;5.670;2022-11-15T08:19:26;31.40;;;18.67;;
27558;SDS011;15002;52.028;5.670;2022-11-15T08:21:52;32.33;;;19.13;;
27558;SDS011;15002;52.028;5.670;2022-11-15T08:24:18;36.78;;;18.33;;
27558;SDS011;15002;52.028;5.670;2022-11-15T08:26:44;30.10;;;17.88;;
27558;SDS011;15002;52.028;5.670;2022-11-15T08:29:09;30.98;;;19.88;;
27558;SDS011;15002;52.028;5.670;2022-11-15T08:31:35;31.25;;;18.13;;
27558;SDS011;15002;52.028;5.670;2022-11-15T08:34:05;28.52;;;17.52;;
27558;SDS011;15002;52.028;5.670;2022-11-15T08:36:31;27.98;;;17.08;;
27558;SDS011;15002;52.028;5.670;2022-11-15T08:38:57;27.30;;;17.27;;
27558;SDS011;15002;52.028;5.670;2022-11-15T08:43:51;29.10;;;16.90;;
27558;SDS011;15002;52.028;5.670;2022-11-15T08:46:17;28.95;;;16.75;;
27558;SDS011;15002;52.028;5.670;2022-11-15T08:48:43;31.55;;;16.77;;
27558;SDS011;15002;52.028;5.670;2022-11-15T08:51:08;26.33;;;16.65;;
27558;SDS011;15002;52.028;5.670;2022-11-15T08:53:34;27.15;;;16.52;;
27558;SDS011;15002;52.028;5.670;2022-11-15T08:56:00;33.33;;;17.25;;
27558;SDS011;15002;52.028;5.670;2022-11-15T08:58:26;25.70;;;16.23;;
27558;SDS011;15002;52.028;5.670;2022-11-15T09:00:52;24.60;;;15.32;;
27558;SDS011;15002;52.028;5.670;2022-11-15T09:03:17;29.70;;;16.38;;
27558;SDS011;15002;52.028;5.670;2022-11-15T09:05:43;23.83;;;16.13;;
27558;SDS011;15002;52.028;5.670;2022-11-15T09:08:09;23.67;;;15.93;;
27558;SDS011;15002;52.028;5.670;2022-11-15T09:10:34;27.77;;;15.32;;
27558;SDS011;15002;52.028;5.670;2022-11-15T09:13:00;30.40;;;15.30;;
27558;SDS011;15002;52.028;5.670;2022-11-15T09:15:26;25.95;;;16.25;;
27558;SDS011;15002;52.028;5.670;2022-11-15T09:17:51;27.08;;;15.75;;
27558;SDS011;15002;52.028;5.670;2022-11-15T09:20:17;23.88;;;15.82;;
27558;SDS011;15002;52.028;5.670;2022-11-15T09:22:43;21.92;;;14.88;;
27558;SDS011;15002;52.028;5.670;2022-11-15T09:25:08;23.73;;;15.75;;
27558;SDS011;15002;52.028;5.670;2022-11-15T09:27:35;24.25;;;15.00;;
27558;SDS011;15002;52.028;5.670;2022-11-15T09:30:00;23.95;;;14.25;;
27558;SDS011;15002;52.028;5.670;2022-11-15T09:32:29;21.55;;;14.38;;
27558;SDS011;15002;52.028;5.670;2022-11-15T09:34:55;20.23;;;13.80;;
27558;SDS011;15002;52.028;5.670;2022-11-15T09:37:21;27.67;;;14.00;;
27558;SDS011;15002;52.028;5.670;2022-11-15T09:39:47;18.88;;;12.18;;
27558;SDS011;15002;52.028;5.670;2022-11-15T09:45:23;20.00;;;11.55;;
27558;SDS011;15002;52.028;5.670;2022-11-15T09:50:34;15.35;;;9.82;;
27558;SDS011;15002;52.028;5.670;2022-11-15T09:53:04;18.73;;;10.57;;
27558;SDS011;15002;52.028;5.670;2022-11-15T09:55:40;16.42;;;10.00;;
27558;SDS011;15002;52.028;5.670;2022-11-15T09:58:26;14.85;;;9.98;;
27558;SDS011;15002;52.028;5.670;2022-11-15T10:01:12;17.30;;;8.98;;
27558;SDS011;15002;52.028;5.670;2022-11-15T10:06:26;12.75;;;8.40;;
27558;SDS011;15002;52.028;5.670;2022-11-15T10:08:58;11.13;;;7.63;;
27558;SDS011;15002;52.028;5.670;2022-11-15T10:11:35;13.00;;;8.35;;
27558;SDS011;15002;52.028;5.670;2022-11-15T10:14:04;11.63;;;7.47;;
27558;SDS011;15002;52.028;5.670;2022-11-15T10:19:47;10.13;;;7.07;;
27558;SDS011;15002;52.028;5.670;2022-11-15T10:22:35;13.38;;;7.60;;
27558;SDS011;15002;52.028;5.670;2022-11-15T10:27:34;11.73;;;7.10;;
27558;SDS011;15002;52.028;5.670;2022-11-15T10:30:00;9.63;;;6.00;;
27558;SDS011;15002;52.028;5.670;2022-11-15T10:32:29;9.00;;;5.97;;
27558;SDS011;15002;52.028;5.670;2022-11-15T10:34:57;9.80;;;5.80;;
27558;SDS011;15002;52.028;5.670;2022-11-15T10:37:29;7.32;;;5.65;;
27558;SDS011;15002;52.028;5.670;2022-11-15T10:40:03;9.55;;;4.90;;
27558;SDS011;15002;52.028;5.670;2022-11-15T10:42:30;7.00;;;5.30;;
27558;SDS011;15002;52.028;5.670;2022-11-15T10:44:56;11.98;;;4.45;;
27558;SDS011;15002;52.028;5.670;2022-11-15T10:49:56;8.03;;;5.03;;
27558;SDS011;15002;52.028;5.670;2022-11-15T10:52:23;7.20;;;5.15;;
27558;SDS011;15002;52.028;5.670;2022-11-15T10:57:26;6.90;;;4.82;;
27558;SDS011;15002;52.028;5.670;2022-11-15T11:00:04;6.47;;;5.10;;
27558;SDS011;15002;52.028;5.670;2022-11-15T11:02:33;7.85;;;4.97;;
27558;SDS011;15002;52.028;5.670;2022-11-15T11:04:59;8.60;;;4.47;;
27558;SDS011;15002;52.028;5.670;2022-11-15T11:07:27;7.10;;;4.72;;
27558;SDS011;15002;52.028;5.670;2022-11-15T11:12:50;8.05;;;4.18;;
27558;SDS011;15002;52.028;5.670;2022-11-15T11:15:16;5.38;;;3.72;;
27558;SDS011;15002;52.028;5.670;2022-11-15T11:23:01;8.77;;;3.22;;
27558;SDS011;15002;52.028;5.670;2022-11-15T11:28:14;7.63;;;3.03;;
27558;SDS011;15002;52.028;5.670;2022-11-15T11:30:56;7.70;;;2.92;;
27558;SDS011;15002;52.028;5.670;2022-11-15T11:36:39;4.55;;;2.28;;
27558;SDS011;15002;52.028;5.670;2022-11-15T11:49:59;5.00;;;2.72;;
27558;SDS011;15002;52.028;5.670;2022-11-15T11:52:52;3.85;;;2.40;;
27558;SDS011;15002;52.028;5.670;2022-11-15T11:55:25;4.65;;;2.33;;
27558;SDS011;15002;52.028;5.670;2022-11-15T11:59:05;3.45;;;2.22;;
27558;SDS011;15002;52.028;5.670;2022-11-15T12:06:58;3.67;;;2.00;;
27558;SDS011;15002;52.028;5.670;2022-11-15T12:09:31;2.10;;;1.75;;
27558;SDS011;15002;52.028;5.670;2022-11-15T12:14:48;2.97;;;1.85;;
27558;SDS011;15002;52.028;5.670;2022-11-15T12:17:24;3.88;;;2.22;;
27558;SDS011;15002;52.028;5.670;2022-11-15T12:19:52;4.53;;;2.10;;
27558;SDS011;15002;52.028;5.670;2022-11-15T12:22:46;5.53;;;2.10;;
27558;SDS011;15002;52.028;5.670;2022-11-15T12:25:22;3.17;;;1.45;;
27558;SDS011;15002;52.028;5.670;2022-11-15T12:28:17;2.83;;;1.65;;
27558;SDS011;15002;52.028;5.670;2022-11-15T12:34:00;10.15;;;2.10;;
27558;SDS011;15002;52.028;5.670;2022-11-15T12:36:55;6.57;;;1.70;;
27558;SDS011;15002;52.028;5.670;2022-11-15T12:39:20;4.05;;;1.35;;
27558;SDS011;15002;52.028;5.670;2022-11-15T12:44:56;4.53;;;1.83;;
27558;SDS011;15002;52.028;5.670;2022-11-15T12:47:24;5.22;;;1.73;;
27558;SDS011;15002;52.028;5.670;2022-11-15T12:49:51;2.65;;;1.90;;
27558;SDS011;15002;52.028;5.670;2022-11-15T12:52:18;3.35;;;2.00;;
27558;SDS011;15002;52.028;5.670;2022-11-15T13:02:38;4.47;;;1.73;;
27558;SDS011;15002;52.028;5.670;2022-11-15T13:22:42;3.58;;;1.40;;
27558;SDS011;15002;52.028;5.670;2022-11-15T13:30:39;3.63;;;1.30;;
27558;SDS011;15002;52.028;5.670;2022-11-15T13:33:25;1.75;;;1.30;;
27558;SDS011;15002;52.028;5.670;2022-11-15T13:41:10;5.93;;;1.30;;
27558;SDS011;15002;52.028;5.670;2022-11-15T13:43:42;5.07;;;1.20;;
27558;SDS011;15002;52.028;5.670;2022-11-15T13:46:12;3.85;;;1.35;;
27558;SDS011;15002;52.028;5.670;2022-11-15T13:48:41;6.90;;;1.40;;
27558;SDS011;15002;52.028;5.670;2022-11-15T13:51:18;5.50;;;1.38;;
27558;SDS011;15002;52.028;5.670;2022-11-15T13:53:52;3.33;;;1.05;;
27558;SDS011;15002;52.028;5.670;2022-11-15T13:56:23;3.72;;;1.20;;
27558;SDS011;15002;52.028;5.670;2022-11-15T13:58:51;2.85;;;0.95;;
27558;SDS011;15002;52.028;5.670;2022-11-15T14:01:18;3.28;;;1.20;;
27558;SDS011;15002;52.028;5.670;2022-11-15T14:03:47;4.43;;;1.27;;
27558;SDS011;15002;52.028;5.670;2022-11-15T14:11:35;4.10;;;1.13;;
27558;SDS011;15002;52.028;5.670;2022-11-15T14:16:37;3.45;;;1.00;;
27558;SDS011;15002;52.028;5.670;2022-11-15T14:19:11;4.80;;;1.30;;
27558;SDS011;15002;52.028;5.670;2022-11-15T14:24:43;1.63;;;0.95;;
27558;SDS011;15002;52.028;5.670;2022-11-15T14:27:17;4.22;;;1.05;;
27558;SDS011;15002;52.028;5.670;2022-11-15T14:29:47;4.82;;;0.85;;
27558;SDS011;15002;52.028;5.670;2022-11-15T14:32:14;3.05;;;1.08;;
27558;SDS011;15002;52.028;5.670;2022-11-15T14:34:45;8.82;;;1.45;;
27558;SDS011;15002;52.028;5.670;2022-11-15T14:37:19;2.92;;;0.73;;
27558;SDS011;15002;52.028;5.670;2022-11-15T14:39:47;3.55;;;1.10;;
27558;SDS011;15002;52.028;5.670;2022-11-15T14:42:13;3.55;;;1.20;;
27558;SDS011;15002;52.028;5.670;2022-11-15T14:44:39;5.60;;;1.10;;
27558;SDS011;15002;52.028;5.670;2022-11-15T14:47:04;4.10;;;0.98;;
27558;SDS011;15002;52.028;5.670;2022-11-15T14:49:30;4.30;;;0.82;;
27558;SDS011;15002;52.028;5.670;2022-11-15T14:51:56;2.70;;;1.15;;
27558;SDS011;15002;52.028;5.670;2022-11-15T14:54:22;4.32;;;1.10;;
27558;SDS011;15002;52.028;5.670;2022-11-15T14:56:47;2.15;;;0.90;;
27558;SDS011;15002;52.028;5.670;2022-11-15T14:59:13;3.80;;;1.38;;
27558;SDS011;15002;52.028;5.670;2022-11-15T15:01:39;2.67;;;1.10;;
27558;SDS011;15002;52.028;5.670;2022-11-15T15:04:04;6.22;;;1.30;;
27558;SDS011;15002;52.028;5.670;2022-11-15T15:06:30;2.95;;;1.17;;
27558;SDS011;15002;52.028;5.670;2022-11-15T15:08:56;3.33;;;0.90;;
27558;SDS011;15002;52.028;5.670;2022-11-15T15:11:25;4.88;;;1.10;;
27558;SDS011;15002;52.028;5.670;2022-11-15T15:13:53;0.80;;;0.80;;
27558;SDS011;15002;52.028;5.670;2022-11-15T15:16:22;3.30;;;1.10;;
27558;SDS011;15002;52.028;5.670;2022-11-15T15:18:54;3.10;;;1.05;;
27558;SDS011;15002;52.028;5.670;2022-11-15T15:21:20;5.13;;;1.20;;
27558;SDS011;15002;52.028;5.670;2022-11-15T15:23:56;3.60;;;0.88;;
27558;SDS011;15002;52.028;5.670;2022-11-15T15:26:22;1.92;;;1.00;;
27558;SDS011;15002;52.028;5.670;2022-11-15T15:28:48;4.40;;;1.40;;
27558;SDS011;15002;52.028;5.670;2022-11-15T15:31:16;4.15;;;1.00;;
27558;SDS011;15002;52.028;5.670;2022-11-15T15:33:42;3.05;;;0.82;;
27558;SDS011;15002;52.028;5.670;2022-11-15T15:36:10;2.75;;;0.93;;
27558;SDS011;15002;52.028;5.670;2022-11-15T15:38:37;5.75;;;1.50;;
27558;SDS011;15002;52.028;5.670;2022-11-15T15:41:08;7.75;;;1.13;;
27558;SDS011;15002;52.028;5.670;2022-11-15T15:43:36;4.25;;;1.15;;
27558;SDS011;15002;52.028;5.670;2022-11-15T15:46:02;3.83;;;1.15;;
27558;SDS011;15002;52.028;5.670;2022-11-15T15:48:28;2.45;;;1.15;;
27558;SDS011;15002;52.028;5.670;2022-11-15T15:50:54;3.65;;;1.27;;
27558;SDS011;15002;52.028;5.670;2022-11-15T15:53:19;3.42;;;1.20;;
27558;SDS011;15002;52.028;5.670;2022-11-15T15:55:45;3.95;;;1.15;;
27558;SDS011;15002;52.028;5.670;2022-11-15T15:58:11;2.58;;;1.10;;
27558;SDS011;15002;52.028;5.670;2022-11-15T16:00:36;4.18;;;1.10;;
27558;SDS011;15002;52.028;5.670;2022-11-15T16:03:03;2.22;;;1.20;;
27558;SDS011;15002;52.028;5.670;2022-11-15T16:05:28;3.00;;;1.25;;
27558;SDS011;15002;52.028;5.670;2022-11-15T16:07:54;3.03;;;1.25;;
27558;SDS011;15002;52.028;5.670;2022-11-15T16:12:46;4.25;;;1.40;;
27558;SDS011;15002;52.028;5.670;2022-11-15T16:15:12;4.40;;;1.35;;
27558;SDS011;15002;52.028;5.670;2022-11-15T16:17:38;3.45;;;1.13;;
27558;SDS011;15002;52.028;5.670;2022-11-15T16:20:21;5.57;;;1.30;;
27558;SDS011;15002;52.028;5.670;2022-11-15T16:23:10;2.70;;;1.45;;
27558;SDS011;15002;52.028;5.670;2022-11-15T16:25:44;3.88;;;1.77;;
27558;SDS011;15002;52.028;5.670;2022-11-15T16:28:14;4.15;;;1.20;;
27558;SDS011;15002;52.028;5.670;2022-11-15T16:30:44;3.83;;;1.55;;
27558;SDS011;15002;52.028;5.670;2022-11-15T16:33:10;2.78;;;1.35;;
27558;SDS011;15002;52.028;5.670;2022-11-15T16:35:36;5.78;;;1.92;;
27558;SDS011;15002;52.028;5.670;2022-11-15T16:38:01;2.25;;;1.50;;
27558;SDS011;15002;52.028;5.670;2022-11-15T16:40:28;11.15;;;1.75;;
27558;SDS011;15002;52.028;5.670;2022-11-15T16:42:56;5.43;;;1.85;;
27558;SDS011;15002;52.028;5.670;2022-11-15T16:45:23;6.25;;;1.58;;
27558;SDS011;15002;52.028;5.670;2022-11-15T16:47:50;4.53;;;1.70;;
27558;SDS011;15002;52.028;5.670;2022-11-15T16:50:20;6.22;;;2.00;;
27558;SDS011;15002;52.028;5.670;2022-11-15T16:55:14;5.22;;;1.63;;
27558;SDS011;15002;52.028;5.670;2022-11-15T16:57:40;3.60;;;1.70;;
27558;SDS011;15002;52.028;5.670;2022-11-15T17:00:07;4.32;;;1.65;;
27558;SDS011;15002;52.028;5.670;2022-11-15T17:02:35;4.10;;;1.80;;
27558;SDS011;15002;52.028;5.670;2022-11-15T17:05:01;7.35;;;1.42;;
27558;SDS011;15002;52.028;5.670;2022-11-15T17:07:26;3.47;;;1.50;;